sensor_id;sensor_type;location;lat;lon;timestamp;P1;durP1;ratioP1;P2;durP2;ratioP2
81936;SDS011;71432;56.558;9.036;2023-12-20T00:00:40;16.03;;;6.53;;
81936;SDS011;71432;56.558;9.036;2023-12-20T00:03:05;17.37;;;5.67;;
81936;SDS011;71432;56.558;9.036;2023-12-20T00:05:30;14.25;;;5.22;;
81936;SDS011;71432;56.558;9.036;2023-12-20T00:08:00;13.07;;;5.40;;
81936;SDS011;71432;56.558;9.036;2023-12-20T00:10:25;12.20;;;5.60;;
81936;SDS011;71432;56.558;9.036;2023-12-20T00:12:50;13.77;;;5.55;;
81936;SDS011;71432;56.558;9.036;2023-12-20T00:15:16;12.33;;;5.17;;
81936;SDS011;71432;56.558;9.036;2023-12-20T00:17:41;11.00;;;4.37;;
81936;SDS011;71432;56.558;9.036;2023-12-20T00:20:06;12.27;;;6.27;;
81936;SDS011;71432;56.558;9.036;2023-12-20T00:22:32;11.48;;;4.38;;
81936;SDS011;71432;56.558;9.036;2023-12-20T00:24:57;12.47;;;5.40;;
81936;SDS011;71432;56.558;9.036;2023-12-20T00:27:23;13.00;;;5.27;;
81936;SDS011;71432;56.558;9.036;2023-12-20T00:29:48;13.52;;;5.00;;
81936;SDS011;71432;56.558;9.036;2023-12-20T00:32:15;13.20;;;5.07;;
81936;SDS011;71432;56.558;9.036;2023-12-20T00:34:41;11.68;;;4.60;;
81936;SDS011;71432;56.558;9.036;2023-12-20T00:37:06;12.93;;;4.25;;
81936;SDS011;71432;56.558;9.036;2023-12-20T00:39:31;10.93;;;3.90;;
81936;SDS011;71432;56.558;9.036;2023-12-20T00:41:58;11.02;;;4.20;;
81936;SDS011;71432;56.558;9.036;2023-12-20T00:44:23;10.75;;;4.32;;
81936;SDS011;71432;56.558;9.036;2023-12-20T00:46:48;12.68;;;4.45;;
81936;SDS011;71432;56.558;9.036;2023-12-20T00:49:14;9.07;;;4.15;;
81936;SDS011;71432;56.558;9.036;2023-12-20T00:51:39;12.48;;;4.85;;
81936;SDS011;71432;56.558;9.036;2023-12-20T00:54:05;8.33;;;3.40;;
81936;SDS011;71432;56.558;9.036;2023-12-20T00:56:30;10.60;;;3.67;;
81936;SDS011;71432;56.558;9.036;2023-12-20T00:58:55;9.18;;;4.03;;
81936;SDS011;71432;56.558;9.036;2023-12-20T01:01:21;10.88;;;3.70;;
81936;SDS011;71432;56.558;9.036;2023-12-20T01:03:47;7.63;;;3.75;;
81936;SDS011;71432;56.558;9.036;2023-12-20T01:06:13;10.10;;;3.85;;
81936;SDS011;71432;56.558;9.036;2023-12-20T01:08:38;9.07;;;4.13;;
81936;SDS011;71432;56.558;9.036;2023-12-20T01:11:04;8.32;;;3.90;;
81936;SDS011;71432;56.558;9.036;2023-12-20T01:13:30;6.90;;;3.60;;
81936;SDS011;71432;56.558;9.036;2023-12-20T01:15:56;8.82;;;3.90;;
81936;SDS011;71432;56.558;9.036;2023-12-20T01:18:21;7.13;;;3.05;;
81936;SDS011;71432;56.558;9.036;2023-12-20T01:20:47;9.47;;;3.60;;
81936;SDS011;71432;56.558;9.036;2023-12-20T01:23:12;7.18;;;2.60;;
81936;SDS011;71432;56.558;9.036;2023-12-20T01:25:37;6.73;;;2.67;;
81936;SDS011;71432;56.558;9.036;2023-12-20T01:28:02;8.17;;;3.03;;
81936;SDS011;71432;56.558;9.036;2023-12-20T01:30:28;6.75;;;3.20;;
81936;SDS011;71432;56.558;9.036;2023-12-20T01:32:53;9.73;;;2.97;;
81936;SDS011;71432;56.558;9.036;2023-12-20T01:35:19;8.57;;;3.05;;
81936;SDS011;71432;56.558;9.036;2023-12-20T01:37:44;8.05;;;3.35;;
81936;SDS011;71432;56.558;9.036;2023-12-20T01:40:10;7.95;;;2.95;;
81936;SDS011;71432;56.558;9.036;2023-12-20T01:42:35;9.30;;;2.67;;
81936;SDS011;71432;56.558;9.036;2023-12-20T01:45:01;6.53;;;2.70;;
81936;SDS011;71432;56.558;9.036;2023-12-20T01:47:27;7.00;;;3.58;;
81936;SDS011;71432;56.558;9.036;2023-12-20T01:49:53;8.95;;;2.70;;
81936;SDS011;71432;56.558;9.036;2023-12-20T01:52:19;8.10;;;3.00;;
81936;SDS011;71432;56.558;9.036;2023-12-20T01:54:45;7.45;;;2.58;;
81936;SDS011;71432;56.558;9.036;2023-12-20T01:57:12;7.07;;;2.50;;
81936;SDS011;71432;56.558;9.036;2023-12-20T01:59:38;6.53;;;2.35;;
81936;SDS011;71432;56.558;9.036;2023-12-20T02:02:04;7.00;;;3.53;;
81936;SDS011;71432;56.558;9.036;2023-12-20T02:04:30;6.43;;;2.13;;
81936;SDS011;71432;56.558;9.036;2023-12-20T02:06:56;7.28;;;2.47;;
81936;SDS011;71432;56.558;9.036;2023-12-20T02:09:23;4.75;;;2.30;;
81936;SDS011;71432;56.558;9.036;2023-12-20T02:11:49;8.63;;;2.67;;
81936;SDS011;71432;56.558;9.036;2023-12-20T02:14:15;6.18;;;2.45;;
81936;SDS011;71432;56.558;9.036;2023-12-20T02:16:40;6.13;;;1.95;;
81936;SDS011;71432;56.558;9.036;2023-12-20T02:19:06;5.97;;;2.05;;
81936;SDS011;71432;56.558;9.036;2023-12-20T02:21:38;4.10;;;2.00;;
81936;SDS011;71432;56.558;9.036;2023-12-20T02:24:03;5.47;;;2.20;;
81936;SDS011;71432;56.558;9.036;2023-12-20T02:26:29;4.90;;;2.08;;
81936;SDS011;71432;56.558;9.036;2023-12-20T02:28:55;5.72;;;1.77;;
81936;SDS011;71432;56.558;9.036;2023-12-20T02:31:21;6.13;;;1.87;;
81936;SDS011;71432;56.558;9.036;2023-12-20T02:33:47;4.55;;;2.25;;
81936;SDS011;71432;56.558;9.036;2023-12-20T02:36:12;5.03;;;1.88;;
81936;SDS011;71432;56.558;9.036;2023-12-20T02:38:38;5.27;;;2.23;;
81936;SDS011;71432;56.558;9.036;2023-12-20T02:41:03;4.30;;;1.60;;
81936;SDS011;71432;56.558;9.036;2023-12-20T02:43:28;4.93;;;2.10;;
81936;SDS011;71432;56.558;9.036;2023-12-20T02:45:53;2.97;;;2.00;;
81936;SDS011;71432;56.558;9.036;2023-12-20T02:48:19;6.07;;;2.13;;
81936;SDS011;71432;56.558;9.036;2023-12-20T02:50:45;5.30;;;1.93;;
81936;SDS011;71432;56.558;9.036;2023-12-20T02:53:13;6.30;;;1.83;;
81936;SDS011;71432;56.558;9.036;2023-12-20T02:55:38;3.47;;;1.50;;
81936;SDS011;71432;56.558;9.036;2023-12-20T02:58:03;6.43;;;2.13;;
81936;SDS011;71432;56.558;9.036;2023-12-20T03:00:29;3.28;;;1.90;;
81936;SDS011;71432;56.558;9.036;2023-12-20T03:02:54;4.17;;;2.20;;
81936;SDS011;71432;56.558;9.036;2023-12-20T03:05:19;4.03;;;1.67;;
81936;SDS011;71432;56.558;9.036;2023-12-20T03:07:45;5.00;;;1.85;;
81936;SDS011;71432;56.558;9.036;2023-12-20T03:10:11;3.33;;;1.48;;
81936;SDS011;71432;56.558;9.036;2023-12-20T03:12:36;6.18;;;1.50;;
81936;SDS011;71432;56.558;9.036;2023-12-20T03:15:02;5.90;;;1.33;;
81936;SDS011;71432;56.558;9.036;2023-12-20T03:17:27;5.40;;;2.33;;
81936;SDS011;71432;56.558;9.036;2023-12-20T03:19:52;4.67;;;1.73;;
81936;SDS011;71432;56.558;9.036;2023-12-20T03:22:18;3.23;;;1.77;;
81936;SDS011;71432;56.558;9.036;2023-12-20T03:24:43;5.47;;;1.63;;
81936;SDS011;71432;56.558;9.036;2023-12-20T03:27:08;8.95;;;1.45;;
81936;SDS011;71432;56.558;9.036;2023-12-20T03:29:33;3.63;;;1.20;;
81936;SDS011;71432;56.558;9.036;2023-12-20T03:31:59;3.80;;;1.30;;
81936;SDS011;71432;56.558;9.036;2023-12-20T03:34:24;4.85;;;1.48;;
81936;SDS011;71432;56.558;9.036;2023-12-20T03:36:49;6.93;;;2.37;;
81936;SDS011;71432;56.558;9.036;2023-12-20T03:39:15;6.80;;;2.40;;
81936;SDS011;71432;56.558;9.036;2023-12-20T03:41:40;4.23;;;1.30;;
81936;SDS011;71432;56.558;9.036;2023-12-20T03:44:05;2.42;;;1.38;;
81936;SDS011;71432;56.558;9.036;2023-12-20T03:46:31;3.65;;;1.50;;
81936;SDS011;71432;56.558;9.036;2023-12-20T03:48:56;5.68;;;1.50;;
81936;SDS011;71432;56.558;9.036;2023-12-20T03:51:22;5.50;;;1.40;;
81936;SDS011;71432;56.558;9.036;2023-12-20T03:53:47;3.73;;;1.50;;
81936;SDS011;71432;56.558;9.036;2023-12-20T03:56:12;4.72;;;1.50;;
81936;SDS011;71432;56.558;9.036;2023-12-20T03:58:38;5.15;;;1.10;;
81936;SDS011;71432;56.558;9.036;2023-12-20T04:01:03;3.37;;;1.47;;
81936;SDS011;71432;56.558;9.036;2023-12-20T04:03:33;3.25;;;1.20;;
81936;SDS011;71432;56.558;9.036;2023-12-20T04:05:59;3.33;;;1.37;;
81936;SDS011;71432;56.558;9.036;2023-12-20T04:08:24;4.82;;;1.30;;
81936;SDS011;71432;56.558;9.036;2023-12-20T04:10:49;4.33;;;1.20;;
81936;SDS011;71432;56.558;9.036;2023-12-20T04:13:15;2.93;;;1.00;;
81936;SDS011;71432;56.558;9.036;2023-12-20T04:15:40;3.28;;;1.25;;
81936;SDS011;71432;56.558;9.036;2023-12-20T04:18:05;3.55;;;1.13;;
81936;SDS011;71432;56.558;9.036;2023-12-20T04:20:31;3.65;;;1.05;;
81936;SDS011;71432;56.558;9.036;2023-12-20T04:22:56;2.67;;;0.93;;
81936;SDS011;71432;56.558;9.036;2023-12-20T04:25:21;3.17;;;1.13;;
81936;SDS011;71432;56.558;9.036;2023-12-20T04:27:47;3.50;;;1.47;;
81936;SDS011;71432;56.558;9.036;2023-12-20T04:30:12;3.73;;;1.23;;
81936;SDS011;71432;56.558;9.036;2023-12-20T04:32:38;2.58;;;1.10;;
81936;SDS011;71432;56.558;9.036;2023-12-20T04:35:04;3.90;;;1.03;;
81936;SDS011;71432;56.558;9.036;2023-12-20T04:37:29;2.85;;;1.33;;
81936;SDS011;71432;56.558;9.036;2023-12-20T04:39:55;2.42;;;0.90;;
81936;SDS011;71432;56.558;9.036;2023-12-20T04:42:20;3.92;;;1.55;;
81936;SDS011;71432;56.558;9.036;2023-12-20T04:44:45;2.30;;;1.03;;
81936;SDS011;71432;56.558;9.036;2023-12-20T04:47:11;2.38;;;1.02;;
81936;SDS011;71432;56.558;9.036;2023-12-20T04:49:36;3.90;;;1.10;;
81936;SDS011;71432;56.558;9.036;2023-12-20T04:52:01;3.10;;;1.15;;
81936;SDS011;71432;56.558;9.036;2023-12-20T04:54:27;4.13;;;1.30;;
81936;SDS011;71432;56.558;9.036;2023-12-20T04:56:52;3.45;;;1.20;;
81936;SDS011;71432;56.558;9.036;2023-12-20T04:59:18;5.20;;;1.50;;
81936;SDS011;71432;56.558;9.036;2023-12-20T05:01:43;3.47;;;1.20;;
81936;SDS011;71432;56.558;9.036;2023-12-20T05:04:09;2.87;;;1.00;;
81936;SDS011;71432;56.558;9.036;2023-12-20T05:06:34;2.38;;;0.98;;
81936;SDS011;71432;56.558;9.036;2023-12-20T05:08:59;2.95;;;1.30;;
81936;SDS011;71432;56.558;9.036;2023-12-20T05:11:25;2.87;;;1.13;;
81936;SDS011;71432;56.558;9.036;2023-12-20T05:13:50;2.13;;;0.77;;
81936;SDS011;71432;56.558;9.036;2023-12-20T05:16:15;4.43;;;1.00;;
81936;SDS011;71432;56.558;9.036;2023-12-20T05:18:42;3.67;;;1.23;;
81936;SDS011;71432;56.558;9.036;2023-12-20T05:21:08;2.70;;;1.30;;
81936;SDS011;71432;56.558;9.036;2023-12-20T05:23:34;3.03;;;1.08;;
81936;SDS011;71432;56.558;9.036;2023-12-20T05:25:59;3.22;;;0.90;;
81936;SDS011;71432;56.558;9.036;2023-12-20T05:28:25;3.97;;;0.93;;
81936;SDS011;71432;56.558;9.036;2023-12-20T05:30:50;5.00;;;1.00;;
81936;SDS011;71432;56.558;9.036;2023-12-20T05:33:16;2.75;;;1.00;;
81936;SDS011;71432;56.558;9.036;2023-12-20T05:35:41;2.97;;;1.00;;
81936;SDS011;71432;56.558;9.036;2023-12-20T05:38:07;4.17;;;1.00;;
81936;SDS011;71432;56.558;9.036;2023-12-20T05:40:32;2.80;;;1.00;;
81936;SDS011;71432;56.558;9.036;2023-12-20T05:42:57;2.60;;;0.80;;
81936;SDS011;71432;56.558;9.036;2023-12-20T05:45:22;3.33;;;0.87;;
81936;SDS011;71432;56.558;9.036;2023-12-20T05:47:48;4.83;;;0.87;;
81936;SDS011;71432;56.558;9.036;2023-12-20T05:50:13;2.55;;;0.77;;
81936;SDS011;71432;56.558;9.036;2023-12-20T05:52:38;1.67;;;0.80;;
81936;SDS011;71432;56.558;9.036;2023-12-20T05:55:04;3.28;;;0.88;;
81936;SDS011;71432;56.558;9.036;2023-12-20T05:57:29;3.38;;;1.23;;
81936;SDS011;71432;56.558;9.036;2023-12-20T05:59:55;3.07;;;1.03;;
81936;SDS011;71432;56.558;9.036;2023-12-20T06:02:20;5.63;;;0.98;;
81936;SDS011;71432;56.558;9.036;2023-12-20T06:04:45;4.43;;;0.90;;
81936;SDS011;71432;56.558;9.036;2023-12-20T06:07:11;23.42;;;5.75;;
81936;SDS011;71432;56.558;9.036;2023-12-20T06:09:37;117.90;;;33.20;;
81936;SDS011;71432;56.558;9.036;2023-12-20T06:12:03;68.97;;;18.95;;
81936;SDS011;71432;56.558;9.036;2023-12-20T06:14:29;56.22;;;15.10;;
81936;SDS011;71432;56.558;9.036;2023-12-20T06:16:55;40.55;;;11.73;;
81936;SDS011;71432;56.558;9.036;2023-12-20T06:19:21;32.80;;;8.57;;
81936;SDS011;71432;56.558;9.036;2023-12-20T06:21:46;31.92;;;7.15;;
81936;SDS011;71432;56.558;9.036;2023-12-20T06:24:12;24.58;;;7.13;;
81936;SDS011;71432;56.558;9.036;2023-12-20T06:26:37;26.75;;;7.15;;
81936;SDS011;71432;56.558;9.036;2023-12-20T06:29:03;22.25;;;6.88;;
81936;SDS011;71432;56.558;9.036;2023-12-20T06:31:28;20.70;;;5.13;;
81936;SDS011;71432;56.558;9.036;2023-12-20T06:33:54;23.38;;;5.00;;
81936;SDS011;71432;56.558;9.036;2023-12-20T06:36:22;22.55;;;6.47;;
81936;SDS011;71432;56.558;9.036;2023-12-20T06:38:48;15.27;;;4.32;;
81936;SDS011;71432;56.558;9.036;2023-12-20T06:41:13;21.03;;;5.47;;
81936;SDS011;71432;56.558;9.036;2023-12-20T06:43:39;17.40;;;4.40;;
81936;SDS011;71432;56.558;9.036;2023-12-20T06:48:31;19.60;;;4.97;;
81936;SDS011;71432;56.558;9.036;2023-12-20T06:50:56;18.05;;;5.13;;
81936;SDS011;71432;56.558;9.036;2023-12-20T06:53:21;14.77;;;4.33;;
81936;SDS011;71432;56.558;9.036;2023-12-20T06:55:47;13.13;;;4.07;;
81936;SDS011;71432;56.558;9.036;2023-12-20T06:58:12;14.43;;;4.77;;
81936;SDS011;71432;56.558;9.036;2023-12-20T07:00:37;15.50;;;4.50;;
81936;SDS011;71432;56.558;9.036;2023-12-20T07:03:03;12.75;;;3.88;;
81936;SDS011;71432;56.558;9.036;2023-12-20T07:05:28;15.95;;;3.80;;
81936;SDS011;71432;56.558;9.036;2023-12-20T07:07:54;12.10;;;3.83;;
81936;SDS011;71432;56.558;9.036;2023-12-20T07:10:19;12.82;;;3.80;;
81936;SDS011;71432;56.558;9.036;2023-12-20T07:12:44;10.57;;;3.50;;
81936;SDS011;71432;56.558;9.036;2023-12-20T07:15:10;11.73;;;3.45;;
81936;SDS011;71432;56.558;9.036;2023-12-20T07:17:36;12.65;;;3.67;;
81936;SDS011;71432;56.558;9.036;2023-12-20T07:20:01;12.68;;;3.53;;
81936;SDS011;71432;56.558;9.036;2023-12-20T07:22:29;12.32;;;2.90;;
81936;SDS011;71432;56.558;9.036;2023-12-20T07:24:56;14.00;;;3.22;;
81936;SDS011;71432;56.558;9.036;2023-12-20T07:27:22;10.85;;;3.50;;
81936;SDS011;71432;56.558;9.036;2023-12-20T07:29:47;7.47;;;2.75;;
81936;SDS011;71432;56.558;9.036;2023-12-20T07:32:13;12.48;;;4.10;;
81936;SDS011;71432;56.558;9.036;2023-12-20T07:34:38;9.43;;;3.20;;
81936;SDS011;71432;56.558;9.036;2023-12-20T07:37:03;11.73;;;3.03;;
81936;SDS011;71432;56.558;9.036;2023-12-20T07:39:29;10.40;;;2.95;;
81936;SDS011;71432;56.558;9.036;2023-12-20T07:41:54;7.07;;;2.97;;
81936;SDS011;71432;56.558;9.036;2023-12-20T07:44:19;12.20;;;3.50;;
81936;SDS011;71432;56.558;9.036;2023-12-20T07:46:45;11.00;;;3.10;;
81936;SDS011;71432;56.558;9.036;2023-12-20T07:49:10;6.53;;;2.60;;
81936;SDS011;71432;56.558;9.036;2023-12-20T07:51:36;6.82;;;2.33;;
81936;SDS011;71432;56.558;9.036;2023-12-20T07:54:01;8.15;;;2.72;;
81936;SDS011;71432;56.558;9.036;2023-12-20T07:56:28;10.15;;;2.55;;
81936;SDS011;71432;56.558;9.036;2023-12-20T07:58:53;6.95;;;2.20;;
81936;SDS011;71432;56.558;9.036;2023-12-20T08:01:19;6.53;;;2.40;;
81936;SDS011;71432;56.558;9.036;2023-12-20T08:03:45;7.25;;;2.58;;
81936;SDS011;71432;56.558;9.036;2023-12-20T08:06:11;6.75;;;3.13;;
81936;SDS011;71432;56.558;9.036;2023-12-20T08:08:36;6.32;;;2.00;;
81936;SDS011;71432;56.558;9.036;2023-12-20T08:11:02;7.67;;;2.40;;
81936;SDS011;71432;56.558;9.036;2023-12-20T08:13:27;8.63;;;2.20;;
81936;SDS011;71432;56.558;9.036;2023-12-20T08:15:53;6.70;;;2.45;;
81936;SDS011;71432;56.558;9.036;2023-12-20T08:18:19;6.63;;;2.42;;
81936;SDS011;71432;56.558;9.036;2023-12-20T08:20:44;8.50;;;1.93;;
81936;SDS011;71432;56.558;9.036;2023-12-20T08:23:09;10.30;;;2.83;;
81936;SDS011;71432;56.558;9.036;2023-12-20T08:25:35;8.00;;;2.22;;
81936;SDS011;71432;56.558;9.036;2023-12-20T08:28:01;7.30;;;2.30;;
81936;SDS011;71432;56.558;9.036;2023-12-20T08:30:27;3.88;;;1.75;;
81936;SDS011;71432;56.558;9.036;2023-12-20T08:32:53;6.30;;;2.20;;
81936;SDS011;71432;56.558;9.036;2023-12-20T08:35:18;7.73;;;2.07;;
81936;SDS011;71432;56.558;9.036;2023-12-20T08:40:10;5.30;;;1.97;;
81936;SDS011;71432;56.558;9.036;2023-12-20T08:42:35;5.53;;;1.92;;
81936;SDS011;71432;56.558;9.036;2023-12-20T08:45:01;6.30;;;2.13;;
81936;SDS011;71432;56.558;9.036;2023-12-20T08:47:26;4.30;;;1.55;;
81936;SDS011;71432;56.558;9.036;2023-12-20T08:49:52;4.55;;;1.70;;
81936;SDS011;71432;56.558;9.036;2023-12-20T08:52:21;4.22;;;2.00;;
81936;SDS011;71432;56.558;9.036;2023-12-20T08:54:49;4.25;;;1.55;;
81936;SDS011;71432;56.558;9.036;2023-12-20T08:57:21;6.57;;;3.20;;
81936;SDS011;71432;56.558;9.036;2023-12-20T08:59:48;4.82;;;1.60;;
81936;SDS011;71432;56.558;9.036;2023-12-20T09:02:14;5.50;;;1.77;;
81936;SDS011;71432;56.558;9.036;2023-12-20T09:04:40;4.32;;;1.40;;
81936;SDS011;71432;56.558;9.036;2023-12-20T09:07:05;3.33;;;1.30;;
81936;SDS011;71432;56.558;9.036;2023-12-20T09:09:32;6.03;;;1.55;;
81936;SDS011;71432;56.558;9.036;2023-12-20T09:11:58;4.72;;;1.65;;
81936;SDS011;71432;56.558;9.036;2023-12-20T09:14:24;4.50;;;2.00;;
81936;SDS011;71432;56.558;9.036;2023-12-20T09:16:49;8.70;;;2.05;;
81936;SDS011;71432;56.558;9.036;2023-12-20T09:19:16;3.90;;;1.48;;
81936;SDS011;71432;56.558;9.036;2023-12-20T09:21:44;5.35;;;1.42;;
81936;SDS011;71432;56.558;9.036;2023-12-20T09:24:09;5.05;;;1.45;;
81936;SDS011;71432;56.558;9.036;2023-12-20T09:26:35;3.30;;;1.13;;
81936;SDS011;71432;56.558;9.036;2023-12-20T09:29:00;4.70;;;1.50;;
81936;SDS011;71432;56.558;9.036;2023-12-20T09:31:25;6.05;;;2.47;;
81936;SDS011;71432;56.558;9.036;2023-12-20T09:33:51;5.65;;;1.90;;
81936;SDS011;71432;56.558;9.036;2023-12-20T09:36:17;3.75;;;1.50;;
81936;SDS011;71432;56.558;9.036;2023-12-20T09:38:42;4.10;;;1.65;;
81936;SDS011;71432;56.558;9.036;2023-12-20T09:41:07;4.20;;;1.30;;
81936;SDS011;71432;56.558;9.036;2023-12-20T09:43:34;5.45;;;1.80;;
81936;SDS011;71432;56.558;9.036;2023-12-20T09:46:05;4.57;;;1.63;;
81936;SDS011;71432;56.558;9.036;2023-12-20T09:48:35;5.88;;;1.50;;
81936;SDS011;71432;56.558;9.036;2023-12-20T09:51:01;3.20;;;1.45;;
81936;SDS011;71432;56.558;9.036;2023-12-20T09:53:26;4.80;;;1.40;;
81936;SDS011;71432;56.558;9.036;2023-12-20T09:55:56;5.32;;;1.33;;
81936;SDS011;71432;56.558;9.036;2023-12-20T09:58:24;5.97;;;2.03;;
81936;SDS011;71432;56.558;9.036;2023-12-20T10:00:49;2.88;;;1.58;;
81936;SDS011;71432;56.558;9.036;2023-12-20T10:03:16;4.78;;;1.50;;
81936;SDS011;71432;56.558;9.036;2023-12-20T10:05:43;4.00;;;1.45;;
81936;SDS011;71432;56.558;9.036;2023-12-20T10:08:09;5.13;;;1.58;;
81936;SDS011;71432;56.558;9.036;2023-12-20T10:10:35;3.95;;;1.75;;
81936;SDS011;71432;56.558;9.036;2023-12-20T10:15:33;4.78;;;1.73;;
81936;SDS011;71432;56.558;9.036;2023-12-20T10:18:00;7.82;;;1.75;;
81936;SDS011;71432;56.558;9.036;2023-12-20T10:20:26;4.45;;;1.40;;
81936;SDS011;71432;56.558;9.036;2023-12-20T10:22:54;4.82;;;1.20;;
81936;SDS011;71432;56.558;9.036;2023-12-20T10:25:20;3.92;;;1.33;;
81936;SDS011;71432;56.558;9.036;2023-12-20T10:27:46;3.60;;;1.63;;
81936;SDS011;71432;56.558;9.036;2023-12-20T10:30:12;3.05;;;1.35;;
81936;SDS011;71432;56.558;9.036;2023-12-20T10:32:39;4.55;;;1.52;;
81936;SDS011;71432;56.558;9.036;2023-12-20T10:37:30;5.85;;;1.73;;
81936;SDS011;71432;56.558;9.036;2023-12-20T10:39:56;4.97;;;1.52;;
81936;SDS011;71432;56.558;9.036;2023-12-20T10:42:26;4.10;;;1.40;;
81936;SDS011;71432;56.558;9.036;2023-12-20T10:44:51;2.80;;;1.10;;
81936;SDS011;71432;56.558;9.036;2023-12-20T10:47:19;3.17;;;1.52;;
81936;SDS011;71432;56.558;9.036;2023-12-20T10:49:44;3.70;;;1.30;;
81936;SDS011;71432;56.558;9.036;2023-12-20T10:52:11;4.65;;;1.73;;
81936;SDS011;71432;56.558;9.036;2023-12-20T10:54:38;4.63;;;1.33;;
81936;SDS011;71432;56.558;9.036;2023-12-20T10:57:05;4.10;;;1.30;;
81936;SDS011;71432;56.558;9.036;2023-12-20T10:59:32;5.70;;;1.85;;
81936;SDS011;71432;56.558;9.036;2023-12-20T11:01:59;3.00;;;1.33;;
81936;SDS011;71432;56.558;9.036;2023-12-20T11:04:31;5.05;;;1.80;;
81936;SDS011;71432;56.558;9.036;2023-12-20T11:10:16;4.25;;;1.70;;
81936;SDS011;71432;56.558;9.036;2023-12-20T11:12:55;3.13;;;1.15;;
81936;SDS011;71432;56.558;9.036;2023-12-20T11:15:25;3.13;;;1.40;;
81936;SDS011;71432;56.558;9.036;2023-12-20T11:17:55;3.60;;;1.30;;
81936;SDS011;71432;56.558;9.036;2023-12-20T11:20:34;3.45;;;1.40;;
81936;SDS011;71432;56.558;9.036;2023-12-20T11:23:02;5.30;;;1.92;;
81936;SDS011;71432;56.558;9.036;2023-12-20T11:25:27;3.17;;;1.30;;
81936;SDS011;71432;56.558;9.036;2023-12-20T11:28:09;4.50;;;1.10;;
81936;SDS011;71432;56.558;9.036;2023-12-20T11:30:42;2.30;;;1.20;;
81936;SDS011;71432;56.558;9.036;2023-12-20T11:33:12;3.53;;;1.00;;
81936;SDS011;71432;56.558;9.036;2023-12-20T11:35:38;2.72;;;1.30;;
81936;SDS011;71432;56.558;9.036;2023-12-20T11:38:04;2.03;;;1.05;;
81936;SDS011;71432;56.558;9.036;2023-12-20T11:40:32;3.30;;;1.67;;
81936;SDS011;71432;56.558;9.036;2023-12-20T11:42:59;3.78;;;1.50;;
81936;SDS011;71432;56.558;9.036;2023-12-20T11:45:25;5.05;;;1.40;;
81936;SDS011;71432;56.558;9.036;2023-12-20T11:47:51;4.68;;;1.25;;
81936;SDS011;71432;56.558;9.036;2023-12-20T11:50:18;2.72;;;1.42;;
81936;SDS011;71432;56.558;9.036;2023-12-20T11:52:44;3.17;;;1.10;;
81936;SDS011;71432;56.558;9.036;2023-12-20T11:55:09;2.58;;;1.60;;
81936;SDS011;71432;56.558;9.036;2023-12-20T11:57:35;4.93;;;1.30;;
81936;SDS011;71432;56.558;9.036;2023-12-20T12:00:01;2.78;;;1.42;;
81936;SDS011;71432;56.558;9.036;2023-12-20T12:02:27;3.55;;;1.38;;
81936;SDS011;71432;56.558;9.036;2023-12-20T12:04:53;4.25;;;1.02;;
81936;SDS011;71432;56.558;9.036;2023-12-20T12:07:18;6.95;;;1.92;;
81936;SDS011;71432;56.558;9.036;2023-12-20T12:09:44;3.90;;;1.60;;
81936;SDS011;71432;56.558;9.036;2023-12-20T12:12:10;4.22;;;1.50;;
81936;SDS011;71432;56.558;9.036;2023-12-20T12:14:37;4.40;;;0.85;;
81936;SDS011;71432;56.558;9.036;2023-12-20T12:17:03;7.78;;;1.60;;
81936;SDS011;71432;56.558;9.036;2023-12-20T12:19:29;4.55;;;1.52;;
81936;SDS011;71432;56.558;9.036;2023-12-20T12:24:51;3.13;;;1.10;;
81936;SDS011;71432;56.558;9.036;2023-12-20T12:27:17;5.45;;;1.17;;
81936;SDS011;71432;56.558;9.036;2023-12-20T12:29:59;4.63;;;1.50;;
81936;SDS011;71432;56.558;9.036;2023-12-20T12:32:27;5.47;;;1.73;;
81936;SDS011;71432;56.558;9.036;2023-12-20T12:34:52;2.60;;;1.20;;
81936;SDS011;71432;56.558;9.036;2023-12-20T12:37:18;4.30;;;1.67;;
81936;SDS011;71432;56.558;9.036;2023-12-20T12:39:43;3.38;;;1.85;;
81936;SDS011;71432;56.558;9.036;2023-12-20T12:42:08;3.57;;;1.40;;
81936;SDS011;71432;56.558;9.036;2023-12-20T12:44:33;5.23;;;1.90;;
81936;SDS011;71432;56.558;9.036;2023-12-20T12:46:59;11.27;;;1.75;;
81936;SDS011;71432;56.558;9.036;2023-12-20T12:49:24;4.57;;;1.67;;
81936;SDS011;71432;56.558;9.036;2023-12-20T12:51:50;4.22;;;1.67;;
81936;SDS011;71432;56.558;9.036;2023-12-20T12:54:16;3.13;;;1.40;;
81936;SDS011;71432;56.558;9.036;2023-12-20T12:56:43;3.88;;;1.40;;
81936;SDS011;71432;56.558;9.036;2023-12-20T12:59:09;4.50;;;1.98;;
81936;SDS011;71432;56.558;9.036;2023-12-20T13:01:34;5.03;;;1.50;;
81936;SDS011;71432;56.558;9.036;2023-12-20T13:03:59;6.60;;;1.40;;
81936;SDS011;71432;56.558;9.036;2023-12-20T13:06:27;6.63;;;1.63;;
81936;SDS011;71432;56.558;9.036;2023-12-20T13:08:53;6.00;;;1.50;;
81936;SDS011;71432;56.558;9.036;2023-12-20T13:11:19;3.03;;;1.67;;
81936;SDS011;71432;56.558;9.036;2023-12-20T13:13:44;4.20;;;1.30;;
81936;SDS011;71432;56.558;9.036;2023-12-20T13:16:10;4.78;;;1.83;;
81936;SDS011;71432;56.558;9.036;2023-12-20T13:18:35;4.32;;;1.48;;
81936;SDS011;71432;56.558;9.036;2023-12-20T13:21:00;3.90;;;1.93;;
81936;SDS011;71432;56.558;9.036;2023-12-20T13:23:26;3.57;;;1.17;;
81936;SDS011;71432;56.558;9.036;2023-12-20T13:25:51;2.90;;;1.60;;
81936;SDS011;71432;56.558;9.036;2023-12-20T13:28:16;2.33;;;1.23;;
81936;SDS011;71432;56.558;9.036;2023-12-20T13:30:42;4.63;;;1.20;;
81936;SDS011;71432;56.558;9.036;2023-12-20T13:33:07;3.70;;;1.30;;
81936;SDS011;71432;56.558;9.036;2023-12-20T13:35:34;5.28;;;1.30;;
81936;SDS011;71432;56.558;9.036;2023-12-20T13:38:00;5.20;;;1.40;;
81936;SDS011;71432;56.558;9.036;2023-12-20T13:40:26;3.80;;;1.23;;
81936;SDS011;71432;56.558;9.036;2023-12-20T13:42:51;7.13;;;1.40;;
81936;SDS011;71432;56.558;9.036;2023-12-20T13:45:17;4.70;;;1.48;;
81936;SDS011;71432;56.558;9.036;2023-12-20T13:47:42;5.00;;;1.15;;
81936;SDS011;71432;56.558;9.036;2023-12-20T13:50:08;5.03;;;1.75;;
81936;SDS011;71432;56.558;9.036;2023-12-20T13:52:34;2.53;;;1.20;;
81936;SDS011;71432;56.558;9.036;2023-12-20T13:55:00;4.93;;;1.50;;
81936;SDS011;71432;56.558;9.036;2023-12-20T13:57:25;3.80;;;1.42;;
81936;SDS011;71432;56.558;9.036;2023-12-20T13:59:50;7.93;;;1.40;;
81936;SDS011;71432;56.558;9.036;2023-12-20T14:02:16;5.22;;;1.15;;
81936;SDS011;71432;56.558;9.036;2023-12-20T14:04:41;7.70;;;1.70;;
81936;SDS011;71432;56.558;9.036;2023-12-20T14:07:07;6.35;;;1.42;;
81936;SDS011;71432;56.558;9.036;2023-12-20T14:09:33;3.83;;;1.55;;
81936;SDS011;71432;56.558;9.036;2023-12-20T14:11:59;3.88;;;1.05;;
81936;SDS011;71432;56.558;9.036;2023-12-20T14:14:24;4.90;;;1.50;;
81936;SDS011;71432;56.558;9.036;2023-12-20T14:16:50;3.03;;;0.80;;
81936;SDS011;71432;56.558;9.036;2023-12-20T14:19:16;2.47;;;1.00;;
81936;SDS011;71432;56.558;9.036;2023-12-20T14:21:41;4.03;;;1.73;;
81936;SDS011;71432;56.558;9.036;2023-12-20T14:24:06;5.20;;;1.30;;
81936;SDS011;71432;56.558;9.036;2023-12-20T14:26:32;7.95;;;1.63;;
81936;SDS011;71432;56.558;9.036;2023-12-20T14:28:57;5.40;;;1.33;;
81936;SDS011;71432;56.558;9.036;2023-12-20T14:31:22;5.03;;;1.40;;
81936;SDS011;71432;56.558;9.036;2023-12-20T14:33:49;8.95;;;1.17;;
81936;SDS011;71432;56.558;9.036;2023-12-20T14:38:42;3.90;;;1.13;;
81936;SDS011;71432;56.558;9.036;2023-12-20T14:41:08;10.75;;;1.52;;
81936;SDS011;71432;56.558;9.036;2023-12-20T14:43:33;6.97;;;1.05;;
81936;SDS011;71432;56.558;9.036;2023-12-20T14:45:59;6.40;;;0.95;;
81936;SDS011;71432;56.558;9.036;2023-12-20T14:48:24;3.95;;;1.35;;
81936;SDS011;71432;56.558;9.036;2023-12-20T14:50:53;3.80;;;1.10;;
81936;SDS011;71432;56.558;9.036;2023-12-20T14:53:19;11.43;;;1.52;;
81936;SDS011;71432;56.558;9.036;2023-12-20T14:55:45;5.78;;;1.20;;